Kaprifol — 5BXX2 — position and weather

sailwx.info

Track history (hours):
 
Tides and Currents Weather Stations Pressure Air Temp Water Temp Dewpoint Dewpoint Depression Visibility Wind Speed Wind Dir Waves Ship Positions

Kaprifol

Last reported at 2016-Jul-28 17:31 UTC. Time now 2016-Jul-29 04:06 UTC.
Position N 57°48' E 010°41'.

Length 90 m; draft 4.2 m.

Type: Tanker. MMSI: 210445000.

Date/timePositionNaut miles runAvg speedWind from/ knotsBaromVisibWave heightAir tempDewpointWater temp
2016-Jul-28 17:31N 57°48' E 010°41'9 9.0
2016-Jul-28 16:33N 57°43' E 010°55'1010.2
2016-Jul-28 15:33N 57°36' E 011°09'1110.6
2016-Jul-28 14:33N 57°29' E 011°23'1010.5
2016-Jul-28 13:33N 57°20' E 011°31'1010.5
2016-Jul-28 12:33N 57°10' E 011°38'1510.9
2016-Jul-28 11:09N 56°55' E 011°47'610.6
2016-Jul-28 10:33N 56°49' E 011°51'4310.1
2016-Jul-28 06:18N 56°18' E 010°57'810.9
2016-Jul-28 05:34N 56°12' E 010°48'10 9.6
2016-Jul-28 04:33N 56°05' E 010°36'1110.8
2016-Jul-28 03:34N 56°09' E 010°18'2 0.7
2016-Jul-28 00:22N 56°09' E 010°14'0 0.0
2016-Jul-27 18:16N 56°09' E 010°14'0 0.0
2016-Jul-27 17:33N 56°09' E 010°14'7 7.3
2016-Jul-27 16:34N 56°07' E 010°26'10 9.6
2016-Jul-27 15:32N 56°06' E 010°43'9 9.5
2016-Jul-27 14:33N 56°14' E 010°51'49 9.7
2016-Jul-27 09:33N 56°52' E 011°47'1010.4
2016-Jul-27 08:33N 57°01' E 011°42'1010.0
2016-Jul-27 07:34N 57°11' E 011°36'10 9.7
2016-Jul-27 06:34N 57°20' E 011°30'10 9.8
2016-Jul-27 05:34N 57°29' E 011°23'10 9.7
2016-Jul-27 04:34N 57°38' E 011°17'10 9.8
2016-Jul-27 03:33N 57°47' E 011°09'9 9.2
2016-Jul-27 02:33N 57°55' E 011°01'9 9.3
2016-Jul-27 01:34N 58°04' E 010°54'10 9.6
2016-Jul-27 00:34N 58°13' E 010°48'9 8.9
2016-Jul-26 23:33N 58°21' E 010°41'7 7.0
2016-Jul-26 22:33N 58°17' E 010°29'11510.2
2016-Jul-26 11:16N 57°43' E 007°02'710.3
2016-Jul-26 10:33N 57°44' E 006°48'1010.2
2016-Jul-26 09:33N 57°46' E 006°29'1010.3
2016-Jul-26 08:32N 57°53' E 006°15'9 9.5
2016-Jul-26 07:33N 57°59' E 006°02'31 9.9
2016-Jul-26 04:26N 58°19' E 005°16'9 9.9
2016-Jul-26 03:33N 58°25' E 005°05'1010.5
2016-Jul-26 02:33N 58°33' E 004°52'1010.3
2016-Jul-26 01:33N 58°41' E 004°38'318 8.4
2016-Jul-24 11:31N 63°31' E 009°08'8 8.7
2016-Jul-24 10:34N 63°38' E 009°16'11 9.5
2016-Jul-24 09:27N 63°46' E 009°32'10 0.2
2016-Jul-22 13:33N 63°39' E 009°15'1010.0
2016-Jul-22 12:34N 63°38' E 009°38'8 8.2
2016-Jul-22 11:33N 63°33' E 009°52'9 9.0
2016-Jul-22 10:33N 63°28' E 010°09'6 6.2
2016-Jul-22 09:31N 63°26' E 010°22'0 0.0
2016-Jul-22 08:31N 63°26' E 010°22'0 0.0
2016-Jul-22 07:31N 63°26' E 010°22'0 0.0
2016-Jul-22 04:31N 63°26' E 010°22'0 0.0
2016-Jul-22 03:31N 63°26' E 010°22'0 0.0
2016-Jul-22 02:31N 63°26' E 010°22'0 0.0
2016-Jul-22 01:31N 63°26' E 010°22'0 0.0
2016-Jul-22 00:31N 63°26' E 010°22'0 0.0
2016-Jul-21 23:31N 63°26' E 010°22'0 0.0
2016-Jul-21 22:33N 63°26' E 010°22'8 7.6
2016-Jul-21 21:33N 63°33' E 010°28'1010.3
2016-Jul-21 20:33N 63°40' E 010°46'1010.5
2016-Jul-21 19:33N 63°48' E 011°02'3 0.2
2016-Jul-21 00:33N 63°50' E 011°05'10 9.9
2016-Jul-20 23:34N 63°42' E 010°52'10 9.9
2016-Jul-20 22:33N 63°36' E 010°34'1010.2
2016-Jul-20 21:33N 63°31' E 010°15'9 9.2
2016-Jul-20 20:33N 63°31' E 009°54'10 9.7
2016-Jul-20 19:34N 63°39' E 009°44'1510.4
2016-Jul-20 18:10N 63°32' E 009°15'710.1
2016-Jul-20 17:31N 63°29' E 009°02'279 8.9
2016-Jul-19 10:12N 59°16' E 005°00'710.3
2016-Jul-19 09:33N 59°09' E 005°04'10 9.8
2016-Jul-19 08:33N 59°07' E 005°22'10 9.6
2016-Jul-19 07:33N 59°02' E 005°38'5 1.7
2016-Jul-19 04:30N 58°58' E 005°45'0 0.0
2016-Jul-19 03:33N 58°58' E 005°45'0 0.0
2016-Jul-19 02:33N 58°58' E 005°45'0 0.0
2016-Jul-19 01:33N 58°58' E 005°45'0 0.0
2016-Jul-19 00:33N 58°58' E 005°45'0 0.0
2016-Jul-18 23:33N 58°58' E 005°45'0 0.0
2016-Jul-18 22:33N 58°58' E 005°45'0 0.0
2016-Jul-18 21:33N 58°58' E 005°45'0 0.0
2016-Jul-18 20:33N 58°58' E 005°45'0 0.0
2016-Jul-18 19:33N 58°58' E 005°45'0 0.0
2016-Jul-18 18:33N 58°58' E 005°45'0 0.0
2016-Jul-18 17:33N 58°58' E 005°45'  
Track history (hours):
 
Tides and Currents Weather Stations Pressure Air Temp Water Temp Dewpoint Dewpoint Depression Visibility Wind Speed Wind Dir Waves Ship Positions

Kaprifol

Last reported at 2016-Jul-28 17:31 UTC. Time now 2016-Jul-29 04:06 UTC.
Position N 57°48' E 010°41'.

Length 90 m; draft 4.2 m.

Type: Tanker. MMSI: 210445000.

Date/timePositionNaut miles runAvg speedWind from/ knotsBaromVisibWave heightAir tempDewpointWater temp
2016-Jul-28 17:31N 57°48' E 010°41'9 9.0
2016-Jul-28 16:33N 57°43' E 010°55'1010.2
2016-Jul-28 15:33N 57°36' E 011°09'1110.6
2016-Jul-28 14:33N 57°29' E 011°23'1010.5
2016-Jul-28 13:33N 57°20' E 011°31'1010.5
2016-Jul-28 12:33N 57°10' E 011°38'1510.9
2016-Jul-28 11:09N 56°55' E 011°47'610.6
2016-Jul-28 10:33N 56°49' E 011°51'4310.1
2016-Jul-28 06:18N 56°18' E 010°57'810.9
2016-Jul-28 05:34N 56°12' E 010°48'10 9.6
2016-Jul-28 04:33N 56°05' E 010°36'1110.8
2016-Jul-28 03:34N 56°09' E 010°18'2 0.7
2016-Jul-28 00:22N 56°09' E 010°14'0 0.0
2016-Jul-27 18:16N 56°09' E 010°14'0 0.0
2016-Jul-27 17:33N 56°09' E 010°14'7 7.3
2016-Jul-27 16:34N 56°07' E 010°26'10 9.6
2016-Jul-27 15:32N 56°06' E 010°43'9 9.5
2016-Jul-27 14:33N 56°14' E 010°51'49 9.7
2016-Jul-27 09:33N 56°52' E 011°47'1010.4
2016-Jul-27 08:33N 57°01' E 011°42'1010.0
2016-Jul-27 07:34N 57°11' E 011°36'10 9.7
2016-Jul-27 06:34N 57°20' E 011°30'10 9.8
2016-Jul-27 05:34N 57°29' E 011°23'10 9.7
2016-Jul-27 04:34N 57°38' E 011°17'10 9.8
2016-Jul-27 03:33N 57°47' E 011°09'9 9.2
2016-Jul-27 02:33N 57°55' E 011°01'9 9.3
2016-Jul-27 01:34N 58°04' E 010°54'10 9.6
2016-Jul-27 00:34N 58°13' E 010°48'9 8.9
2016-Jul-26 23:33N 58°21' E 010°41'7 7.0
2016-Jul-26 22:33N 58°17' E 010°29'11510.2
2016-Jul-26 11:16N 57°43' E 007°02'710.3
2016-Jul-26 10:33N 57°44' E 006°48'1010.2
2016-Jul-26 09:33N 57°46' E 006°29'1010.3
2016-Jul-26 08:32N 57°53' E 006°15'9 9.5
2016-Jul-26 07:33N 57°59' E 006°02'31 9.9
2016-Jul-26 04:26N 58°19' E 005°16'9 9.9
2016-Jul-26 03:33N 58°25' E 005°05'1010.5
2016-Jul-26 02:33N 58°33' E 004°52'1010.3
2016-Jul-26 01:33N 58°41' E 004°38'318 8.4
2016-Jul-24 11:31N 63°31' E 009°08'8 8.7
2016-Jul-24 10:34N 63°38' E 009°16'11 9.5
2016-Jul-24 09:27N 63°46' E 009°32'10 0.2
2016-Jul-22 13:33N 63°39' E 009°15'1010.0
2016-Jul-22 12:34N 63°38' E 009°38'8 8.2
2016-Jul-22 11:33N 63°33' E 009°52'9 9.0
2016-Jul-22 10:33N 63°28' E 010°09'6 6.2
2016-Jul-22 09:31N 63°26' E 010°22'0 0.0
2016-Jul-22 08:31N 63°26' E 010°22'0 0.0
2016-Jul-22 07:31N 63°26' E 010°22'0 0.0
2016-Jul-22 04:31N 63°26' E 010°22'0 0.0
2016-Jul-22 03:31N 63°26' E 010°22'0 0.0
2016-Jul-22 02:31N 63°26' E 010°22'0 0.0
2016-Jul-22 01:31N 63°26' E 010°22'0 0.0
2016-Jul-22 00:31N 63°26' E 010°22'0 0.0
2016-Jul-21 23:31N 63°26' E 010°22'0 0.0
2016-Jul-21 22:33N 63°26' E 010°22'8 7.6
2016-Jul-21 21:33N 63°33' E 010°28'1010.3
2016-Jul-21 20:33N 63°40' E 010°46'1010.5
2016-Jul-21 19:33N 63°48' E 011°02'3 0.2
2016-Jul-21 00:33N 63°50' E 011°05'10 9.9
2016-Jul-20 23:34N 63°42' E 010°52'10 9.9
2016-Jul-20 22:33N 63°36' E 010°34'1010.2
2016-Jul-20 21:33N 63°31' E 010°15'9 9.2
2016-Jul-20 20:33N 63°31' E 009°54'10 9.7
2016-Jul-20 19:34N 63°39' E 009°44'1510.4
2016-Jul-20 18:10N 63°32' E 009°15'710.1
2016-Jul-20 17:31N 63°29' E 009°02'279 8.9
2016-Jul-19 10:12N 59°16' E 005°00'710.3
2016-Jul-19 09:33N 59°09' E 005°04'10 9.8
2016-Jul-19 08:33N 59°07' E 005°22'10 9.6
2016-Jul-19 07:33N 59°02' E 005°38'5 1.7
2016-Jul-19 04:30N 58°58' E 005°45'0 0.0
2016-Jul-19 03:33N 58°58' E 005°45'0 0.0
2016-Jul-19 02:33N 58°58' E 005°45'0 0.0
2016-Jul-19 01:33N 58°58' E 005°45'0 0.0
2016-Jul-19 00:33N 58°58' E 005°45'0 0.0
2016-Jul-18 23:33N 58°58' E 005°45'0 0.0
2016-Jul-18 22:33N 58°58' E 005°45'0 0.0
2016-Jul-18 21:33N 58°58' E 005°45'0 0.0
2016-Jul-18 20:33N 58°58' E 005°45'0 0.0
2016-Jul-18 19:33N 58°58' E 005°45'0 0.0
2016-Jul-18 18:33N 58°58' E 005°45'0 0.0
2016-Jul-18 17:33N 58°58' E 005°45'  

Dump ship's entire track history